Time;durP1;ratioP1;P1;durP2;ratioP2;P2;SDS_P1;SDS_P2;PMS_P1;PMS_P2;Temp;Humidity;BMP_temperature;BMP_pressure;BME280_temperature;BME280_humidity;BME280_pressure;Samples;Min_cycle;Max_cycle;Signal;HPM_P1;HPM_P2
2022/08/15 00:01:08;;;;;;;;;;;;;;;22.54;75.84;98595.59;1754387;80;20139;-69
2022/08/15 00:03:37;;;;;;;;;;;;;;;22.51;75.88;98592.05;1754904;80;20098;-71
2022/08/15 00:06:07;;;;;;;;;;;;;;;22.49;75.94;98590.16;1749554;81;21165;-69
2022/08/15 00:08:35;;;;;;;;;;;;;;;22.45;76.01;98588.52;1754507;81;20127;-71
2022/08/15 00:11:08;;;;;;;;;;;;;;;22.41;76.12;98587.97;1754509;82;20070;-71
2022/08/15 00:13:37;;;;;;;;;;;;;;;22.38;76.22;98592.56;1748073;81;20177;-69
2022/08/15 00:16:05;;;;;;;;;;;;;;;22.36;76.28;98597.45;1740765;80;20105;-70
2022/08/15 00:18:32;;;;;;;;;;;;;;;22.34;76.31;98594.20;1754561;81;21146;-69
2022/08/15 00:20:58;;;;;;;;;;;;;;;22.30;76.35;98590.37;1754648;80;20075;-69
2022/08/15 00:23:26;;;;;;;;;;;;;;;22.24;76.43;98590.90;1754527;80;20095;-69
2022/08/15 00:25:55;;;;;;;;;;;;;;;22.19;76.57;98582.76;1751193;81;20091;-69
2022/08/15 00:28:21;;;;;;;;;;;;;;;22.12;76.66;98583.02;1729664;80;20139;-69
2022/08/15 00:30:48;;;;;;;;;;;;;;;22.06;76.75;98585.97;1754441;80;21098;-69
2022/08/15 00:33:14;;;;;;;;;;;;;;;22.02;76.84;98582.17;1754501;82;20070;-71
2022/08/15 00:35:43;;;;;;;;;;;;;;;21.98;76.96;98593.25;1734181;82;20177;-70
2022/08/15 00:38:19;;;;;;;;;;;;;;;21.94;77.08;98597.04;1730846;82;20097;-71
2022/08/15 00:43:34;;;;;;;;;;;;;;;21.82;77.29;98595.61;1754673;80;21246;-69
2022/08/15 00:46:02;;;;;;;;;;;;;;;21.79;77.39;98596.95;1752164;82;20163;-72
2022/08/15 00:48:43;;;;;;;;;;;;;;;21.75;77.43;98594.48;1723087;83;20113;-69
2022/08/15 00:51:35;;;;;;;;;;;;;;;21.74;77.52;98595.57;1741885;82;20615;-71
2022/08/15 00:54:10;;;;;;;;;;;;;;;21.72;77.58;98595.00;1754688;80;20115;-69
2022/08/15 00:56:47;;;;;;;;;;;;;;;21.69;77.77;98591.45;1753446;80;21155;-70
2022/08/15 00:59:14;;;;;;;;;;;;;;;21.73;77.67;98589.05;1748098;80;20375;-70
2022/08/15 01:01:40;;;;;;;;;;;;;;;21.74;77.64;98593.40;1754642;80;20086;-71
2022/08/15 01:04:08;;;;;;;;;;;;;;;21.77;77.51;98592.88;1754586;80;20099;-69
2022/08/15 01:06:37;;;;;;;;;;;;;;;21.81;77.41;98596.67;1754566;81;20082;-69
2022/08/15 01:09:05;;;;;;;;;;;;;;;21.82;77.38;98590.98;1750826;81;20552;-69
2022/08/15 01:11:48;;;;;;;;;;;;;;;21.85;77.20;98586.39;1754425;80;20416;-73
2022/08/15 01:14:14;;;;;;;;;;;;;;;21.84;77.05;98583.44;1754670;81;20516;-69
2022/08/15 01:16:40;;;;;;;;;;;;;;;21.84;77.05;98579.38;1734038;80;20094;-69
2022/08/15 01:19:16;;;;;;;;;;;;;;;21.84;77.00;98578.02;1739541;82;20097;-70
2022/08/15 01:22:12;;;;;;;;;;;;;;;21.85;76.95;98587.75;1730624;79;21176;-68
2022/08/15 01:24:57;;;;;;;;;;;;;;;21.81;76.90;98582.60;1754610;80;20115;-68
2022/08/15 01:27:29;;;;;;;;;;;;;;;21.79;76.78;98586.66;1734023;82;20117;-68
2022/08/15 01:29:56;;;;;;;;;;;;;;;21.75;76.82;98582.83;1726388;82;20085;-69
2022/08/15 01:32:22;;;;;;;;;;;;;;;21.70;76.86;98583.63;1748681;80;20136;-68
2022/08/15 01:34:49;;;;;;;;;;;;;;;21.67;76.92;98582.80;1741010;82;21029;-68
2022/08/15 01:37:16;;;;;;;;;;;;;;;21.64;76.98;98580.61;1752988;80;20408;-73
2022/08/15 01:39:46;;;;;;;;;;;;;;;21.63;77.13;98582.23;1749178;82;20108;-69
2022/08/15 01:42:22;;;;;;;;;;;;;;;21.62;77.20;98590.06;1748089;82;20161;-70
2022/08/15 01:44:52;;;;;;;;;;;;;;;21.57;77.20;98581.39;1753910;82;20087;-69
2022/08/15 01:47:26;;;;;;;;;;;;;;;21.54;77.22;98579.20;1749104;80;21153;-70
2022/08/15 01:49:55;;;;;;;;;;;;;;;21.51;77.42;98577.02;1747639;81;20146;-69
2022/08/15 01:52:23;;;;;;;;;;;;;;;21.50;77.50;98580.81;1747616;82;20163;-72
2022/08/15 01:54:50;;;;;;;;;;;;;;;21.49;77.63;98587.30;1748065;82;20090;-69
2022/08/15 01:57:16;;;;;;;;;;;;;;;21.49;77.57;98586.77;1727593;82;20113;-73
2022/08/15 01:59:43;;;;;;;;;;;;;;;21.48;77.54;98581.06;1728742;82;21168;-70
2022/08/15 02:02:11;;;;;;;;;;;;;;;21.48;77.58;98583.77;1747487;82;20385;-69
2022/08/15 02:04:39;;;;;;;;;;;;;;;21.46;77.59;98591.34;1747614;82;20083;-68
2022/08/15 02:07:17;;;;;;;;;;;;;;;21.42;77.63;98588.89;1737241;81;20117;-69
2022/08/15 02:09:42;;;;;;;;;;;;;;;21.38;77.75;98582.36;1734183;81;20143;-68
2022/08/15 02:12:09;;;;;;;;;;;;;;;21.35;77.76;98573.97;1725811;82;21153;-69
2022/08/15 02:14:41;;;;;;;;;;;;;;;21.32;77.96;98578.55;1747499;82;20087;-68
2022/08/15 02:17:09;;;;;;;;;;;;;;;21.31;78.05;98578.25;1744821;82;20172;-68
2022/08/15 02:19:39;;;;;;;;;;;;;;;21.25;78.14;98580.64;1741629;82;20162;-68
2022/08/15 02:22:06;;;;;;;;;;;;;;;21.23;78.28;98585.50;1747530;81;20473;-68
2022/08/15 02:24:32;;;;;;;;;;;;;;;21.20;78.36;98586.02;1747430;82;21080;-70
2022/08/15 02:26:58;;;;;;;;;;;;;;;21.17;78.48;98579.23;1723333;82;20071;-69
2022/08/15 02:29:26;;;;;;;;;;;;;;;21.13;78.66;98582.20;1722617;82;20113;-69
2022/08/15 02:31:54;;;;;;;;;;;;;;;21.11;78.76;98583.53;1740094;82;20103;-69
2022/08/15 02:34:20;;;;;;;;;;;;;;;21.10;78.86;98575.13;1747626;82;20095;-68
2022/08/15 02:36:48;;;;;;;;;;;;;;;21.06;79.14;98582.97;1747701;82;21148;-68
2022/08/15 02:39:14;;;;;;;;;;;;;;;21.06;79.30;98578.06;1737032;81;20097;-68
2022/08/15 02:41:43;;;;;;;;;;;;;;;21.04;79.52;98572.89;1734787;82;20119;-68
2022/08/15 02:44:11;;;;;;;;;;;;;;;21.06;79.54;98576.70;1747431;81;20099;-70
2022/08/15 02:46:39;;;;;;;;;;;;;;;21.08;79.64;98574.58;1747613;81;20220;-68
2022/08/15 02:49:11;;;;;;;;;;;;;;;21.10;79.54;98576.48;1744383;82;21158;-69
2022/08/15 02:51:40;;;;;;;;;;;;;;;21.10;79.57;98577.83;1732087;82;20126;-70
2022/08/15 02:54:07;;;;;;;;;;;;;;;21.10;79.52;98573.78;1747699;82;20453;-69
2022/08/15 02:56:35;;;;;;;;;;;;;;;21.06;79.51;98574.00;1726501;82;20111;-70
2022/08/15 02:59:02;;;;;;;;;;;;;;;21.05;79.54;98577.77;1747498;81;20138;-68
2022/08/15 03:01:29;;;;;;;;;;;;;;;21.03;79.61;98582.63;1747531;82;22111;-69
2022/08/15 03:03:56;;;;;;;;;;;;;;;21.01;79.65;98575.31;1744822;82;20161;-69
2022/08/15 03:06:26;;;;;;;;;;;;;;;20.99;79.70;98580.97;1745911;81;20157;-70
2022/08/15 03:08:52;;;;;;;;;;;;;;;20.94;79.93;98580.40;1747590;82;20122;-68
2022/08/15 03:11:19;;;;;;;;;;;;;;;20.91;80.15;98571.98;1747650;81;20428;-70
2022/08/15 03:13:46;;;;;;;;;;;;;;;20.95;80.25;98562.30;1747698;81;21152;-69
2022/08/15 03:16:13;;;;;;;;;;;;;;;20.98;80.33;98559.61;1743387;81;20150;-68
2022/08/15 03:18:42;;;;;;;;;;;;;;;21.02;80.40;98559.36;1739865;82;20097;-68
2022/08/15 03:21:12;;;;;;;;;;;;;;;21.05;80.33;98558.31;1739311;82;20083;-68
2022/08/15 03:23:46;;;;;;;;;;;;;;;21.10;80.30;98556.20;1747511;81;20071;-68
2022/08/15 03:26:08;;;;;;;;;;;;;;;21.15;80.14;98553.53;1740657;82;21770;-71
2022/08/15 03:28:35;;;;;;;;;;;;;;;21.18;80.09;98547.61;1725570;81;20121;-70
2022/08/15 03:31:05;;;;;;;;;;;;;;;21.23;80.09;98548.98;1747437;82;20087;-68
2022/08/15 03:33:33;;;;;;;;;;;;;;;21.28;79.94;98566.60;1747592;82;20134;-72
2022/08/15 03:36:00;;;;;;;;;;;;;;;21.31;79.83;98589.08;1734867;81;20113;-68
2022/08/15 03:38:27;;;;;;;;;;;;;;;21.28;79.69;98599.88;1747630;82;21154;-68
2022/08/15 03:40:53;;;;;;;;;;;;;;;21.20;79.64;98585.48;1747655;82;20444;-69
2022/08/15 03:43:28;;;;;;;;;;;;;;;21.15;79.77;98581.39;1746574;82;20167;-69
2022/08/15 03:45:58;;;;;;;;;;;;;;;21.12;79.95;98583.83;1731168;82;20091;-72
2022/08/15 03:48:29;;;;;;;;;;;;;;;21.12;80.08;98578.41;1752544;81;20087;-69
2022/08/15 03:50:57;;;;;;;;;;;;;;;21.10;80.30;98577.83;1754437;80;21344;-70
2022/08/15 03:53:24;;;;;;;;;;;;;;;21.11;80.41;98576.23;1728845;82;20107;-70
2022/08/15 03:55:51;;;;;;;;;;;;;;;21.16;80.46;98576.28;1736065;80;20125;-70
2022/08/15 03:58:17;;;;;;;;;;;;;;;21.19;80.45;98581.17;1754673;80;20441;-70
2022/08/15 04:00:46;;;;;;;;;;;;;;;21.22;80.56;98581.19;1746323;80;20569;-71
2022/08/15 04:03:18;;;;;;;;;;;;;;;21.34;80.43;98586.67;1754514;80;22074;-69
2022/08/15 04:05:49;;;;;;;;;;;;;;;21.41;80.26;98580.48;1734891;80;20152;-72
2022/08/15 04:08:16;;;;;;;;;;;;;;;21.50;80.07;98579.47;1732610;82;20087;-69
2022/08/15 04:10:42;;;;;;;;;;;;;;;21.56;79.88;98587.08;1754517;81;20130;-70
2022/08/15 04:13:12;;;;;;;;;;;;;;;21.63;79.88;98592.53;1746297;80;20135;-69
2022/08/15 04:15:39;;;;;;;;;;;;;;;21.72;79.71;98592.86;1753291;80;21163;-69
2022/08/15 04:18:06;;;;;;;;;;;;;;;21.78;79.46;98589.89;1705674;80;20409;-69
2022/08/15 04:20:32;;;;;;;;;;;;;;;21.88;79.27;98583.73;1754709;80;20122;-69
2022/08/15 04:23:01;;;;;;;;;;;;;;;21.99;78.78;98579.99;1744532;80;20085;-70
2022/08/15 04:25:30;;;;;;;;;;;;;;;22.05;78.48;98578.41;1749276;80;20078;-69
2022/08/15 04:27:59;;;;;;;;;;;;;;;22.12;78.31;98583.02;1714313;82;20415;-69
2022/08/15 04:30:27;;;;;;;;;;;;;;;22.18;78.11;98579.80;1748608;82;20086;-70
2022/08/15 04:32:56;;;;;;;;;;;;;;;22.25;77.87;98579.53;1741285;80;20089;-70
2022/08/15 04:35:23;;;;;;;;;;;;;;;22.32;77.62;98573.30;1731246;80;20129;-70
2022/08/15 04:37:49;;;;;;;;;;;;;;;22.41;77.39;98571.18;1711139;82;20095;-70
2022/08/15 04:40:16;;;;;;;;;;;;;;;22.49;77.08;98567.13;1754660;80;21153;-71
2022/08/15 04:42:50;;;;;;;;;;;;;;;22.60;76.87;98568.77;1754628;80;20412;-71
2022/08/15 04:45:16;;;;;;;;;;;;;;;22.72;76.37;98580.19;1714810;82;20093;-70
2022/08/15 04:47:43;;;;;;;;;;;;;;;22.77;76.05;98572.59;1744992;80;20224;-69
2022/08/15 04:50:10;;;;;;;;;;;;;;;22.88;75.90;98574.23;1754660;82;20082;-69
2022/08/15 04:52:46;;;;;;;;;;;;;;;22.98;75.81;98573.69;1749778;80;21147;-71
2022/08/15 04:55:13;;;;;;;;;;;;;;;23.15;75.53;98575.56;1738516;82;20114;-69
2022/08/15 04:57:40;;;;;;;;;;;;;;;23.31;74.85;98567.68;1754447;80;20197;-70
2022/08/15 05:00:09;;;;;;;;;;;;;;;23.47;74.38;98564.42;1754356;80;20090;-67
2022/08/15 05:03:05;;;;;;;;;;;;;;;23.74;73.75;98565.44;1729186;80;20103;-69
2022/08/15 05:05:34;;;;;;;;;;;;;;;24.24;72.92;98561.17;1742341;82;21132;-73
2022/08/15 05:08:00;;;;;;;;;;;;;;;24.93;70.83;98552.80;1754698;80;20424;-68
2022/08/15 05:10:29;;;;;;;;;;;;;;;25.63;69.35;98555.39;1745828;80;20412;-68
2022/08/15 05:12:55;;;;;;;;;;;;;;;26.27;66.65;98552.72;1730641;80;20148;-68
2022/08/15 05:15:21;;;;;;;;;;;;;;;26.79;64.07;98546.23;1754657;80;20079;-69
2022/08/15 05:17:49;;;;;;;;;;;;;;;27.07;62.12;98552.02;1748639;80;21149;-68
2022/08/15 05:20:17;;;;;;;;;;;;;;;27.26;60.51;98545.14;1735452;81;20083;-70
2022/08/15 05:22:58;;;;;;;;;;;;;;;27.46;59.96;98550.25;1750563;80;20130;-72
2022/08/15 05:25:24;;;;;;;;;;;;;;;27.73;58.47;98553.56;1757453;80;20098;-70
2022/08/15 05:27:51;;;;;;;;;;;;;;;27.73;57.72;98546.18;1754837;80;20135;-69
2022/08/15 05:30:19;;;;;;;;;;;;;;;27.56;57.81;98548.69;1756754;80;21100;-68
2022/08/15 05:32:46;;;;;;;;;;;;;;;27.46;57.92;98544.79;1736779;81;20087;-68
2022/08/15 05:35:13;;;;;;;;;;;;;;;27.33;58.13;98545.55;1751949;82;20157;-69
2022/08/15 05:37:39;;;;;;;;;;;;;;;27.30;58.28;98546.96;1737393;82;20439;-68
2022/08/15 05:40:08;;;;;;;;;;;;;;;27.50;58.01;98543.91;1749540;80;20070;-71
2022/08/15 05:42:41;;;;;;;;;;;;;;;27.73;57.50;98542.63;1753996;80;20987;-69
2022/08/15 05:45:27;;;;;;;;;;;;;;;28.04;57.25;98547.75;1749813;80;20173;-72
2022/08/15 05:48:12;;;;;;;;;;;;;;;28.59;56.13;98537.48;1752235;80;20126;-72
2022/08/15 05:50:54;;;;;;;;;;;;;;;29.23;54.29;98534.82;1722998;82;20147;-68
2022/08/15 05:53:29;;;;;;;;;;;;;;;29.75;51.97;98538.59;1732862;82;20167;-69
2022/08/15 05:56:18;;;;;;;;;;;;;;;30.07;50.54;98534.68;1746739;82;21182;-70
2022/08/15 05:58:48;;;;;;;;;;;;;;;30.30;49.83;98532.86;1746851;82;20146;-69
2022/08/15 06:01:20;;;;;;;;;;;;;;;30.53;49.07;98532.98;1746676;82;20495;-69
2022/08/15 06:03:56;;;;;;;;;;;;;;;30.58;48.54;98543.80;1745099;82;20141;-70
2022/08/15 06:06:26;;;;;;;;;;;;;;;30.62;48.26;98547.27;1708202;82;20217;-70
2022/08/15 06:08:55;;;;;;;;;;;;;;;30.68;47.99;98545.98;1723606;82;20908;-68
2022/08/15 06:11:26;;;;;;;;;;;;;;;30.80;47.61;98547.50;1735862;82;20107;-69
2022/08/15 06:14:08;;;;;;;;;;;;;;;30.89;47.36;98551.06;1720630;82;20140;-69
2022/08/15 06:16:46;;;;;;;;;;;;;;;31.01;47.35;98552.59;1744965;82;20225;-69
2022/08/15 06:19:23;;;;;;;;;;;;;;;31.25;46.58;98538.33;1748024;82;20186;-72
2022/08/15 06:22:25;;;;;;;;;;;;;;;31.50;46.08;98532.77;1747254;82;21361;-71
2022/08/15 06:25:13;;;;;;;;;;;;;;;31.82;45.69;98537.40;1727685;82;20117;-72
2022/08/15 06:28:02;;;;;;;;;;;;;;;32.23;44.58;98532.81;1737893;82;20091;-71
2022/08/15 06:30:32;;;;;;;;;;;;;;;32.44;43.88;98530.63;1728273;82;20146;-71
2022/08/15 06:33:25;;;;;;;;;;;;;;;32.62;43.49;98527.44;1732280;82;20119;-73
2022/08/15 06:36:19;;;;;;;;;;;;;;;32.76;43.35;98519.70;1747689;82;21216;-70
2022/08/15 06:38:50;;;;;;;;;;;;;;;33.16;42.94;98509.53;1747428;82;20131;-70
2022/08/15 06:41:53;;;;;;;;;;;;;;;33.69;41.79;98509.38;1747743;81;20420;-70
2022/08/15 06:44:27;;;;;;;;;;;;;;;34.12;40.93;98505.48;1738122;82;20087;-71
2022/08/15 06:47:04;;;;;;;;;;;;;;;34.52;39.90;98508.83;1747661;82;20095;-70
2022/08/15 06:49:26;;;;;;;;;;;;;;;34.63;39.43;98516.86;1746827;82;21265;-70
2022/08/15 06:51:53;;;;;;;;;;;;;;;34.72;38.84;98508.67;1747617;82;20127;-70
2022/08/15 06:54:23;;;;;;;;;;;;;;;34.91;38.61;98506.59;1747615;81;20099;-70
2022/08/15 06:57:09;;;;;;;;;;;;;;;35.31;37.86;98511.47;1747370;82;20083;-70
2022/08/15 06:59:39;;;;;;;;;;;;;;;35.65;36.96;98510.56;1747602;82;20083;-70
2022/08/15 07:02:19;;;;;;;;;;;;;;;35.84;36.65;98509.25;1747539;81;21626;-71
2022/08/15 07:05:12;;;;;;;;;;;;;;;35.91;36.46;98507.45;1748066;81;20095;-71
2022/08/15 07:08:11;;;;;;;;;;;;;;;36.10;35.58;98509.50;1726812;82;20087;-70
2022/08/15 07:10:51;;;;;;;;;;;;;;;35.81;35.85;98513.55;1747429;81;20091;-72
2022/08/15 07:13:22;;;;;;;;;;;;;;;35.81;36.15;98519.08;1745883;82;20444;-71
2022/08/15 07:15:52;;;;;;;;;;;;;;;35.71;35.90;98520.20;1747417;81;21235;-71
2022/08/15 07:18:40;;;;;;;;;;;;;;;35.57;36.65;98515.69;1747410;82;20122;-71
2022/08/15 07:21:14;;;;;;;;;;;;;;;35.89;36.11;98514.52;1747522;81;20083;-71
2022/08/15 07:24:11;;;;;;;;;;;;;;;35.95;35.56;98508.33;1747520;82;20170;-70
2022/08/15 07:26:41;;;;;;;;;;;;;;;36.01;35.71;98506.72;1747407;82;20114;-69
2022/08/15 07:29:12;;;;;;;;;;;;;;;36.02;35.55;98501.39;1747578;81;21124;-70
2022/08/15 07:31:43;;;;;;;;;;;;;;;36.13;35.53;98503.25;1726192;82;20419;-71
2022/08/15 07:34:17;;;;;;;;;;;;;;;36.23;35.57;98502.68;1747348;82;20406;-71
2022/08/15 07:36:53;;;;;;;;;;;;;;;36.38;35.11;98505.97;1747483;82;20162;-70
2022/08/15 07:39:29;;;;;;;;;;;;;;;36.25;34.73;98508.64;1744417;82;20143;-71
2022/08/15 07:41:55;;;;;;;;;;;;;;;35.32;36.21;98521.38;1726796;82;21793;-71
2022/08/15 07:44:25;;;;;;;;;;;;;;;34.56;37.52;98529.08;1747469;82;20570;-70
2022/08/15 07:47:01;;;;;;;;;;;;;;;33.51;38.68;98534.16;1747744;81;20441;-71
2022/08/15 07:49:32;;;;;;;;;;;;;;;32.30;41.36;98545.45;1747460;81;20220;-70
2022/08/15 07:52:02;;;;;;;;;;;;;;;31.40;43.42;98548.78;1747543;82;20114;-70
2022/08/15 07:54:46;;;;;;;;;;;;;;;30.71;45.43;98546.72;1743666;82;21124;-73
2022/08/15 07:57:26;;;;;;;;;;;;;;;30.01;47.26;98548.31;1747429;81;20127;-71
2022/08/15 08:00:14;;;;;;;;;;;;;;;29.51;48.49;98547.23;1728438;82;20183;-70
2022/08/15 08:03:05;;;;;;;;;;;;;;;29.33;49.96;98539.47;1747492;82;20107;-70
2022/08/15 08:05:35;;;;;;;;;;;;;;;29.15;50.86;98531.44;1747525;81;20099;-69
2022/08/15 08:08:04;;;;;;;;;;;;;;;29.09;50.76;98525.88;1746433;82;21074;-72
2022/08/15 08:10:42;;;;;;;;;;;;;;;29.18;50.45;98529.45;1747559;81;20135;-70
2022/08/15 08:13:27;;;;;;;;;;;;;;;29.28;50.13;98525.91;1747515;81;20425;-71
2022/08/15 08:16:07;;;;;;;;;;;;;;;29.28;50.29;98524.55;1747593;81;20561;-70
2022/08/15 08:18:53;;;;;;;;;;;;;;;29.35;50.28;98521.38;1747724;82;20146;-70
2022/08/15 08:21:33;;;;;;;;;;;;;;;29.51;50.33;98519.83;1747571;82;21091;-70
2022/08/15 08:24:03;;;;;;;;;;;;;;;29.78;50.14;98522.36;1746911;82;20075;-71
2022/08/15 08:26:48;;;;;;;;;;;;;;;29.99;49.35;98522.57;1747432;82;20146;-73
2022/08/15 08:29:25;;;;;;;;;;;;;;;30.09;49.36;98525.00;1747688;82;20145;-69
2022/08/15 08:32:27;;;;;;;;;;;;;;;30.16;48.98;98525.36;1747841;81;20410;-68
2022/08/15 08:35:12;;;;;;;;;;;;;;;30.27;48.61;98520.38;1708816;82;21171;-70
2022/08/15 08:37:49;;;;;;;;;;;;;;;30.83;47.37;98522.96;1740871;82;20075;-69
2022/08/15 08:43:35;;;;;;;;;;;;;;;33.03;43.02;98513.38;1747853;82;20115;-69
2022/08/15 08:46:28;;;;;;;;;;;;;;;33.72;40.60;98509.27;1747690;82;20083;-70
2022/08/15 08:49:16;;;;;;;;;;;;;;;33.46;40.16;98508.19;1747614;81;21136;-69
2022/08/15 08:51:59;;;;;;;;;;;;;;;33.07;41.15;98511.56;1747735;81;20535;-73
2022/08/15 08:54:29;;;;;;;;;;;;;;;32.92;41.64;98507.48;1747751;81;20433;-72
2022/08/15 08:56:57;;;;;;;;;;;;;;;33.04;41.42;98509.45;1747653;82;20115;-72
2022/08/15 08:59:29;;;;;;;;;;;;;;;33.09;41.52;98508.70;1747695;81;20130;-71
2022/08/15 09:02:02;;;;;;;;;;;;;;;33.27;41.74;98517.60;1747741;81;21155;-70
2022/08/15 09:04:37;;;;;;;;;;;;;;;33.35;41.56;98516.66;1747648;81;20146;-70
2022/08/15 09:07:04;;;;;;;;;;;;;;;33.35;41.65;98518.05;1747092;82;20214;-70
2022/08/15 09:09:34;;;;;;;;;;;;;;;34.19;39.91;98513.73;1747790;82;20119;-69
2022/08/15 09:15:00;;;;;;;;;;;;;;;34.01;39.32;98509.02;1747647;82;21084;-70
2022/08/15 09:17:27;;;;;;;;;;;;;;;33.71;39.35;98512.62;1747611;81;20087;-70
2022/08/15 09:20:05;;;;;;;;;;;;;;;33.74;39.91;98506.98;1747630;81;20118;-71
2022/08/15 09:22:31;;;;;;;;;;;;;;;34.57;39.32;98515.52;1745198;82;20211;-70
2022/08/15 09:24:59;;;;;;;;;;;;;;;35.22;37.28;98502.53;1747559;82;35950;-71
2022/08/15 09:27:32;;;;;;;;;;;;;;;35.11;37.33;98500.66;1738582;82;21207;-71
2022/08/15 09:30:05;;;;;;;;;;;;;;;34.73;36.56;98503.34;1736646;82;20110;-71
2022/08/15 09:32:47;;;;;;;;;;;;;;;34.33;37.36;98514.17;1747660;82;20115;-70
2022/08/15 09:35:17;;;;;;;;;;;;;;;33.85;38.17;98506.16;1747568;81;20126;-70
2022/08/15 09:38:06;;;;;;;;;;;;;;;33.14;39.61;98493.92;1747869;81;20456;-71
2022/08/15 09:40:53;;;;;;;;;;;;;;;32.51;40.46;98493.19;1747519;81;21050;-73
2022/08/15 09:43:28;;;;;;;;;;;;;;;31.89;41.78;98492.34;1747607;81;20160;-72
2022/08/15 09:46:07;;;;;;;;;;;;;;;31.39;43.26;98486.14;1747676;82;20103;-70
2022/08/15 09:48:40;;;;;;;;;;;;;;;31.05;44.17;98500.02;1747771;82;20113;-69
2022/08/15 09:51:25;;;;;;;;;;;;;;;30.74;45.38;98504.31;1754531;80;20456;-70
2022/08/15 09:53:55;;;;;;;;;;;;;;;30.45;46.21;98503.60;1754788;82;21095;-70
2022/08/15 09:56:22;;;;;;;;;;;;;;;30.16;46.98;98497.13;1754610;82;20099;-69
2022/08/15 09:58:55;;;;;;;;;;;;;;;29.92;47.95;98497.01;1754509;82;20095;-70
2022/08/15 10:01:24;;;;;;;;;;;;;;;29.83;49.09;98486.58;1738507;82;20504;-70
2022/08/15 10:03:57;;;;;;;;;;;;;;;29.89;49.31;98494.91;1727841;82;20083;-73
2022/08/15 10:06:46;;;;;;;;;;;;;;;29.81;49.11;98485.28;1754635;80;21900;-70
2022/08/15 10:09:15;;;;;;;;;;;;;;;29.62;49.10;98481.41;1749635;80;20132;-71
2022/08/15 10:11:50;;;;;;;;;;;;;;;29.63;49.48;98481.66;1729125;80;20125;-69
2022/08/15 10:14:25;;;;;;;;;;;;;;;29.67;48.09;98480.48;1743015;82;20130;-71
2022/08/15 10:16:53;;;;;;;;;;;;;;;29.63;47.90;98484.96;1754569;82;20083;-70
2022/08/15 10:19:37;;;;;;;;;;;;;;;29.56;48.61;98486.00;1733382;80;21121;-70
2022/08/15 10:22:26;;;;;;;;;;;;;;;29.57;49.08;98486.22;1754468;81;20456;-69
2022/08/15 10:25:11;;;;;;;;;;;;;;;29.57;49.13;98478.00;1754567;80;20413;-69
2022/08/15 10:28:06;;;;;;;;;;;;;;;29.48;49.57;98475.26;1754587;80;20591;-70
2022/08/15 10:30:36;;;;;;;;;;;;;;;29.58;50.63;98475.52;1754982;82;20114;-69
2022/08/15 10:33:08;;;;;;;;;;;;;;;29.78;49.96;98476.29;1754547;80;21161;-70
2022/08/15 10:35:40;;;;;;;;;;;;;;;29.86;48.86;98472.23;1739476;82;20091;-72
2022/08/15 10:38:07;;;;;;;;;;;;;;;29.90;48.11;98475.94;1754582;80;20114;-69
2022/08/15 10:40:56;;;;;;;;;;;;;;;29.89;47.91;98475.71;1754430;80;20134;-67
2022/08/15 10:43:32;;;;;;;;;;;;;;;29.95;47.72;98468.14;1754615;80;20115;-69
2022/08/15 10:46:11;;;;;;;;;;;;;;;30.00;47.42;98466.62;1754311;81;21231;-69
2022/08/15 10:48:53;;;;;;;;;;;;;;;30.02;46.94;98467.09;1754541;82;20114;-72
2022/08/15 10:51:34;;;;;;;;;;;;;;;29.91;46.18;98459.74;1754416;81;20417;-69
2022/08/15 10:54:22;;;;;;;;;;;;;;;29.89;46.54;98464.75;1754594;81;20095;-69
2022/08/15 10:56:54;;;;;;;;;;;;;;;29.93;46.83;98461.59;1709388;82;20158;-70
2022/08/15 10:59:19;;;;;;;;;;;;;;;29.96;47.20;98465.62;1754426;80;21759;-73
2022/08/15 11:01:46;;;;;;;;;;;;;;;29.96;47.33;98473.86;1754319;80;20666;-72
2022/08/15 11:04:25;;;;;;;;;;;;;;;29.93;47.85;98464.34;1754457;82;20094;-71
2022/08/15 11:06:52;;;;;;;;;;;;;;;29.96;48.33;98458.77;1754691;81;20118;-70
2022/08/15 11:09:20;;;;;;;;;;;;;;;29.99;47.97;98470.48;1754353;80;20114;-73
2022/08/15 11:11:56;;;;;;;;;;;;;;;29.92;47.71;98470.97;1754422;80;21154;-70
2022/08/15 11:14:26;;;;;;;;;;;;;;;29.77;48.09;98476.06;1754467;80;20452;-69
2022/08/15 11:16:52;;;;;;;;;;;;;;;29.58;48.96;98472.22;1754632;80;20095;-71
2022/08/15 11:19:22;;;;;;;;;;;;;;;29.47;49.35;98473.62;1754508;80;20480;-70
2022/08/15 11:21:51;;;;;;;;;;;;;;;29.32;49.03;98475.43;1753673;82;20118;-74
2022/08/15 11:24:33;;;;;;;;;;;;;;;29.14;49.58;98477.27;1754491;81;21196;-73
2022/08/15 11:27:19;;;;;;;;;;;;;;;28.98;50.23;98476.05;1754407;80;20102;-69
2022/08/15 11:29:46;;;;;;;;;;;;;;;28.88;51.07;98484.52;1754485;82;20143;-70
2022/08/15 11:32:31;;;;;;;;;;;;;;;28.82;51.72;98487.13;1754474;80;20198;-71
2022/08/15 11:34:59;;;;;;;;;;;;;;;28.73;52.06;98478.86;1753847;82;20099;-72
2022/08/15 11:37:34;;;;;;;;;;;;;;;28.71;52.38;98483.03;1754447;80;21739;-69
2022/08/15 11:40:04;;;;;;;;;;;;;;;28.67;52.54;98487.52;1753890;80;20118;-69
2022/08/15 11:42:36;;;;;;;;;;;;;;;28.75;52.75;98488.96;1754477;80;20095;-70
2022/08/15 11:45:11;;;;;;;;;;;;;;;28.89;52.92;98488.08;1754533;81;20098;-70
2022/08/15 11:47:41;;;;;;;;;;;;;;;28.99;52.46;98489.96;1754558;80;20110;-71
2022/08/15 11:50:10;;;;;;;;;;;;;;;29.08;52.35;98481.25;1751516;81;21129;-69
2022/08/15 11:52:39;;;;;;;;;;;;;;;29.18;52.38;98476.86;1746089;82;20094;-72
2022/08/15 11:55:20;;;;;;;;;;;;;;;29.30;52.24;98474.95;1746567;82;20119;-69
2022/08/15 11:57:49;;;;;;;;;;;;;;;29.40;51.83;98472.48;1747523;82;20138;-70
2022/08/15 12:00:27;;;;;;;;;;;;;;;29.50;51.50;98477.11;1747581;81;20087;-72
2022/08/15 12:02:54;;;;;;;;;;;;;;;29.55;51.13;98474.22;1747695;82;21115;-70
2022/08/15 12:05:32;;;;;;;;;;;;;;;29.60;51.09;98469.16;1747534;82;20441;-71
2022/08/15 12:08:00;;;;;;;;;;;;;;;29.58;50.61;98471.41;1747805;82;20087;-70
2022/08/15 12:10:37;;;;;;;;;;;;;;;29.50;49.18;98466.70;1747553;81;20127;-68
2022/08/15 12:13:04;;;;;;;;;;;;;;;29.38;49.17;98473.36;1747653;82;20123;-71
2022/08/15 12:15:39;;;;;;;;;;;;;;;29.19;49.23;98470.83;1747542;81;21048;-70
2022/08/15 12:18:22;;;;;;;;;;;;;;;29.05;49.76;98465.45;1747521;81;20452;-71
2022/08/15 12:21:02;;;;;;;;;;;;;;;28.91;50.69;98466.11;1747668;81;20091;-70
2022/08/15 12:23:51;;;;;;;;;;;;;;;28.82;51.40;98464.42;1747718;81;20171;-70
2022/08/15 12:26:19;;;;;;;;;;;;;;;28.72;51.77;98458.11;1747706;82;20087;-70
2022/08/15 12:28:45;;;;;;;;;;;;;;;28.63;52.47;98455.86;1747822;82;21142;-70
2022/08/15 12:31:30;;;;;;;;;;;;;;;28.59;52.88;98462.25;1747621;82;20122;-70
2022/08/15 12:34:09;;;;;;;;;;;;;;;28.60;53.41;98461.92;1747719;81;20151;-70
2022/08/15 12:36:35;;;;;;;;;;;;;;;28.56;53.82;98456.84;1732928;82;20123;-70
2022/08/15 12:39:01;;;;;;;;;;;;;;;28.54;54.43;98454.17;1747683;82;20451;-70
2022/08/15 12:41:27;;;;;;;;;;;;;;;28.58;54.74;98451.86;1747821;82;21174;-70
2022/08/15 12:43:54;;;;;;;;;;;;;;;28.67;54.40;98450.03;1747701;82;20158;-72
2022/08/15 12:46:20;;;;;;;;;;;;;;;28.80;54.10;98452.44;1747724;82;20440;-69
2022/08/15 12:48:47;;;;;;;;;;;;;;;28.89;52.92;98444.28;1747562;81;20103;-72
2022/08/15 12:51:15;;;;;;;;;;;;;;;28.88;52.50;98444.84;1702344;81;20433;-68
2022/08/15 12:53:41;;;;;;;;;;;;;;;28.86;52.94;98442.98;1714502;82;21041;-72
2022/08/15 12:56:08;;;;;;;;;;;;;;;28.88;52.97;98438.00;1714252;83;20438;-72
2022/08/15 12:58:36;;;;;;;;;;;;;;;28.95;53.18;98436.16;1714325;82;20084;-70
2022/08/15 13:01:05;;;;;;;;;;;;;;;29.04;52.57;98435.10;1713525;83;20250;-70
2022/08/15 13:03:33;;;;;;;;;;;;;;;29.11;52.30;98439.55;1695828;83;20497;-70
2022/08/15 13:06:09;;;;;;;;;;;;;;;29.17;52.01;98442.41;1714390;83;21353;-70
2022/08/15 13:08:37;;;;;;;;;;;;;;;29.21;51.78;98442.04;1714297;82;20417;-70
2022/08/15 13:11:04;;;;;;;;;;;;;;;29.22;51.66;98450.52;1714635;82;20293;-71
2022/08/15 13:13:31;;;;;;;;;;;;;;;29.21;51.45;98439.30;1714236;82;20084;-70
2022/08/15 13:15:57;;;;;;;;;;;;;;;29.24;51.53;98447.44;1714478;82;20076;-70
2022/08/15 13:18:24;;;;;;;;;;;;;;;29.29;51.86;98443.19;1714250;82;21426;-70
2022/08/15 13:23:41;;;;;;;;;;;;;;;29.36;51.53;98442.98;1714373;83;20148;-70
2022/08/15 13:26:08;;;;;;;;;;;;;;;29.33;51.67;98442.23;1713605;83;20151;-70
2022/08/15 13:28:37;;;;;;;;;;;;;;;29.31;51.76;98438.20;1714266;83;20099;-73